Airfield :
LOGIN :

Register | Disclaimer

   EN    FR    IT 

 










Legend :    VFR   Marginal VFR   IFR   Intensive IFR   Very Intensive IFR
Visi :
Ceiling :
>= 8 km
>= 3000ft
5 to 8 km
1000 to 3000 ft
1500m to 5 km
500 to 1000 ft
800 to 1500m
200 to 500 ft
< 800m
< 200 ft
Symbols :   Thunderstorms  Fog  Heavy snow  Heavy precipitations  Wind > 20 kt
SIGMETs :     Misc.  Thunderstorms  Icing  Turbulence  Mountain Waves  Volcanic Ashes







- Airport Elevation : 2697 ft
- IATA code : BLJ


DABT - Batna

CURRENT METAR :
  • 231400Z 16007KT 9999 TS SCT026 FEW030CB SCT040 23/14 Q1021

EXPIRED METARs :
  • 231300Z 25003KT 9999 TS SCT026 FEW030CB SCT090 23/16 Q1022
  • 231200Z 05007KT 9999 TS SCT026 FEW030CB SCT090 22/16 Q1021

TAF TAF DABT
Valid from the 23 at 12:00 until the 24 at 12:00 UTC


231100Z 2312/2412 27014KT 9999 FEW023CB BKN040
TEMPO 2312/2320 34020G30KT 5000 TSRA
BECMG 2322/2324 VRB02KT FEW026
No reported NOTAMs for that airfield.
2 SIGMETs reported for the Alger FIR (DAAA) :
 
Embedded thunderstorms
DAAA SIGMET 1 VALID 231130/231530 DAMM
DAAA ALGIERS FIR ISOL EMBD TS OBS WI N3721 E00302 - N3716 E00524 - N3759 E00635 - N3644 E00805 - N3417 E00335 - N3547 E00212- N3721 E00302 TOP FL360 MOV E NC=
Embedded thunderstorms
COR DAAA SIGMET 2 VALID 231130/231530 DAMM
DAAA ALGIERS FIR ISOL EMBD TS OBS WI N3721 E00302 - N3716 E00524 - N3759 E00635 - N3644 E00805 - N3417 E00335 - N3547 E00212- N3721 E00302 TOP FL360 MOV E NC=



MET'MAP, your aeronautical weather chart ! - Copyright ORBIFLY December 2007 - Disclaimer

ORBIFLY MET'MAP TEAM :

Programming & Development : Alexandra Zaïnal
Concept & Development : Baudouin d'Aumeries
Co-Development & Prog : Marc-Olivier Méhu
Technical & hardware support : Manuel Goepfert

Contact : metmap@orbifly.com




SOURCES & CREDITS :

   NOAA